Time;durP1;ratioP1;P1;durP2;ratioP2;P2;SDS_P1;SDS_P2;PMS_P1;PMS_P2;Temp;Humidity;BMP_temperature;BMP_pressure;BME280_temperature;BME280_humidity;BME280_pressure;Samples;Min_cycle;Max_cycle;Signal;HPM_P1;HPM_P2
2022/08/26 00:01:02;;;;;;;28.85;25.20;;;22.10;99.90;;;;;;5103035;27;37763;-61
2022/08/26 00:03:30;;;;;;;26.90;24.15;;;22.10;99.90;;;;;;5103649;27;37828;-61
2022/08/26 00:05:58;;;;;;;27.38;24.40;;;22.10;99.90;;;;;;5101911;27;37462;-61
2022/08/26 00:08:26;;;;;;;25.80;22.38;;;22.20;99.90;;;;;;5103729;27;36769;-61
2022/08/26 00:10:53;;;;;;;22.38;19.27;;;22.20;99.90;;;;;;5104046;27;37401;-61
2022/08/26 00:13:20;;;;;;;21.50;19.00;;;22.20;99.90;;;;;;5103540;27;37841;-61
2022/08/26 00:15:49;;;;;;;26.58;19.33;;;22.10;99.90;;;;;;5104400;27;36351;-61
2022/08/26 00:18:17;;;;;;;23.75;18.60;;;22.20;99.90;;;;;;5105040;27;38588;-61
2022/08/26 00:20:45;;;;;;;22.02;16.67;;;22.20;99.90;;;;;;5102741;27;37307;-61
2022/08/26 00:23:13;;;;;;;21.08;15.60;;;22.20;99.90;;;;;;5103584;27;40184;-61
2022/08/26 00:25:41;;;;;;;26.45;16.77;;;22.20;99.90;;;;;;5104156;27;37004;-61
2022/08/26 00:28:09;;;;;;;22.13;14.70;;;22.30;99.90;;;;;;5104341;27;36918;-61
2022/08/26 00:30:36;;;;;;;24.50;13.57;;;22.30;99.90;;;;;;5101229;27;38738;-61
2022/08/26 00:33:04;;;;;;;20.63;14.77;;;22.30;99.90;;;;;;5102656;27;36537;-61
2022/08/26 00:35:33;;;;;;;27.90;14.43;;;22.30;99.90;;;;;;5102374;27;37295;-61
2022/08/26 00:38:01;;;;;;;20.02;13.43;;;22.30;99.90;;;;;;5103754;27;38100;-61
2022/08/26 00:40:32;;;;;;;23.45;14.50;;;22.30;99.90;;;;;;5103527;27;37040;-61
2022/08/26 00:43:01;;;;;;;21.88;13.45;;;22.30;99.90;;;;;;5104527;27;38181;-61
2022/08/26 00:45:34;;;;;;;21.70;13.95;;;22.30;99.90;;;;;;5103263;27;39871;-61
2022/08/26 00:48:04;;;;;;;23.80;15.73;;;22.30;99.90;;;;;;5103087;27;36784;-61
2022/08/26 00:50:36;;;;;;;26.00;14.75;;;22.30;99.90;;;;;;5105743;27;20176;-61
2022/08/26 00:53:20;;;;;;;25.10;13.77;;;22.30;99.90;;;;;;5104096;27;37185;-61
2022/08/26 00:55:54;;;;;;;23.30;14.95;;;22.30;99.90;;;;;;5103784;27;37334;-61
2022/08/26 00:58:24;;;;;;;19.45;14.40;;;22.30;99.90;;;;;;5105016;27;35509;-61
2022/08/26 01:00:52;;;;;;;26.10;15.88;;;22.30;99.90;;;;;;5103704;27;37509;-61
2022/08/26 01:03:24;;;;;;;21.60;14.30;;;22.30;99.90;;;;;;5103581;27;37768;-60
2022/08/26 01:05:54;;;;;;;21.10;12.65;;;22.30;99.90;;;;;;5103786;27;37579;-61
2022/08/26 01:08:21;;;;;;;21.95;12.63;;;22.30;99.90;;;;;;5102642;27;37769;-61
2022/08/26 01:10:51;;;;;;;17.58;12.40;;;22.30;99.90;;;;;;5103497;27;37331;-61
2022/08/26 01:13:19;;;;;;;21.92;14.15;;;22.30;99.90;;;;;;5104837;27;37299;-61
2022/08/26 01:15:50;;;;;;;21.98;12.50;;;22.30;99.90;;;;;;5103422;27;36372;-61
2022/08/26 01:18:18;;;;;;;23.52;13.50;;;22.30;99.90;;;;;;5103845;27;37733;-61
2022/08/26 01:20:55;;;;;;;20.88;12.63;;;22.20;99.90;;;;;;5103452;27;38573;-61
2022/08/26 01:23:27;;;;;;;22.90;12.30;;;22.20;99.90;;;;;;5103188;27;37759;-61
2022/08/26 01:25:59;;;;;;;20.77;12.82;;;22.20;99.90;;;;;;5102933;27;38510;-61
2022/08/26 01:28:29;;;;;;;20.67;14.50;;;22.20;99.90;;;;;;5104574;27;37286;-61
2022/08/26 01:30:58;;;;;;;21.77;13.35;;;22.20;99.90;;;;;;5101594;27;35236;-61
2022/08/26 01:33:29;;;;;;;23.73;12.80;;;22.20;99.90;;;;;;5103429;27;38559;-61
2022/08/26 01:35:56;;;;;;;25.75;13.10;;;22.20;99.90;;;;;;5101459;27;36377;-62
2022/08/26 01:38:26;;;;;;;24.95;12.85;;;22.20;99.90;;;;;;5104538;27;36681;-60
2022/08/26 01:40:54;;;;;;;22.15;12.65;;;22.20;99.90;;;;;;5103363;27;36411;-61
2022/08/26 01:43:24;;;;;;;22.05;12.57;;;22.10;99.90;;;;;;5107412;27;37997;-61
2022/08/26 01:45:55;;;;;;;22.60;13.40;;;22.10;99.90;;;;;;5105985;27;37192;-61
2022/08/26 01:48:27;;;;;;;23.63;13.38;;;22.10;99.90;;;;;;5106382;27;38281;-60
2022/08/26 01:50:56;;;;;;;20.90;13.75;;;22.10;99.90;;;;;;5107037;27;37700;-61
2022/08/26 01:53:26;;;;;;;23.50;13.35;;;22.10;99.90;;;;;;5106808;27;37945;-61
2022/08/26 01:55:57;;;;;;;28.30;14.23;;;22.10;99.90;;;;;;5106296;27;36453;-61
2022/08/26 01:58:30;;;;;;;24.60;14.65;;;22.10;99.90;;;;;;5106090;27;37185;-61
2022/08/26 02:00:58;;;;;;;23.85;13.23;;;22.10;99.90;;;;;;5106908;27;38119;-61
2022/08/26 02:03:26;;;;;;;20.98;13.43;;;22.10;99.90;;;;;;5106195;27;38990;-61
2022/08/26 02:05:56;;;;;;;21.35;13.88;;;22.10;99.90;;;;;;5106393;27;36346;-61
2022/08/26 02:08:28;;;;;;;27.02;14.75;;;22.10;99.90;;;;;;5105829;27;37684;-59
2022/08/26 02:10:56;;;;;;;24.42;13.60;;;22.10;99.90;;;;;;5107570;27;38416;-59
2022/08/26 02:13:26;;;;;;;23.77;14.20;;;22.10;99.90;;;;;;5105773;27;38445;-58
2022/08/26 02:15:55;;;;;;;20.45;13.73;;;22.10;99.90;;;;;;5106816;27;36240;-58
2022/08/26 02:18:22;;;;;;;21.92;14.68;;;22.00;99.90;;;;;;5106644;27;35717;-58
2022/08/26 02:20:52;;;;;;;25.88;15.30;;;22.00;99.90;;;;;;5107488;27;39986;-58
2022/08/26 02:23:20;;;;;;;23.52;13.98;;;22.00;99.90;;;;;;5107261;27;39036;-59
2022/08/26 02:25:55;;;;;;;24.85;14.63;;;22.00;99.90;;;;;;5106609;27;36354;-59
2022/08/26 02:28:22;;;;;;;26.05;15.30;;;22.10;99.90;;;;;;5105661;27;35763;-58
2022/08/26 02:30:49;;;;;;;27.05;15.20;;;22.00;99.90;;;;;;5104563;27;36919;-58
2022/08/26 02:33:17;;;;;;;28.65;14.68;;;22.00;99.90;;;;;;5106186;27;38117;-58
2022/08/26 02:35:45;;;;;;;24.15;14.52;;;22.00;99.90;;;;;;5105142;27;37175;-58
2022/08/26 02:38:12;;;;;;;29.15;15.07;;;22.00;99.90;;;;;;5106062;27;36454;-59
2022/08/26 02:40:42;;;;;;;21.60;13.82;;;22.00;99.90;;;;;;5105499;27;38652;-58
2022/08/26 02:43:12;;;;;;;22.35;14.13;;;22.00;99.90;;;;;;5105158;27;38188;-59
2022/08/26 02:45:40;;;;;;;32.03;14.73;;;22.00;99.90;;;;;;5104080;27;37642;-58
2022/08/26 02:48:11;;;;;;;27.95;14.27;;;21.90;99.90;;;;;;5105951;27;37468;-59
2022/08/26 02:50:39;;;;;;;25.55;14.88;;;21.90;99.90;;;;;;5105569;27;38042;-58
2022/08/26 02:53:07;;;;;;;23.27;13.57;;;21.90;99.90;;;;;;5105070;27;37580;-58
2022/08/26 02:55:35;;;;;;;25.65;15.40;;;21.90;99.90;;;;;;5105202;27;37090;-58
2022/08/26 02:58:02;;;;;;;24.90;14.27;;;22.00;99.90;;;;;;5106235;27;37263;-59
2022/08/26 03:00:31;;;;;;;23.13;12.65;;;21.90;99.90;;;;;;5104102;27;37532;-58
2022/08/26 03:02:59;;;;;;;20.42;11.75;;;22.00;99.90;;;;;;5105029;27;37533;-59
2022/08/26 03:05:26;;;;;;;22.58;12.13;;;21.90;99.90;;;;;;5103926;27;38406;-59
2022/08/26 03:07:54;;;;;;;22.38;11.65;;;22.00;99.90;;;;;;5106553;27;36667;-58
2022/08/26 03:10:22;;;;;;;26.40;11.18;;;22.00;99.90;;;;;;5105148;27;37286;-59
2022/08/26 03:12:49;;;;;;;19.83;12.32;;;22.00;99.90;;;;;;5104145;27;37662;-59
2022/08/26 03:15:18;;;;;;;27.15;12.52;;;22.00;99.90;;;;;;5105645;27;37196;-60
2022/08/26 03:17:48;;;;;;;21.58;11.55;;;22.00;99.90;;;;;;5105304;27;37982;-58
2022/08/26 03:20:15;;;;;;;25.55;11.85;;;22.00;99.90;;;;;;5105499;27;37729;-58
2022/08/26 03:22:43;;;;;;;22.70;10.82;;;21.90;99.90;;;;;;5104529;27;36469;-59
2022/08/26 03:25:13;;;;;;;20.17;10.70;;;22.00;99.90;;;;;;5105616;27;36275;-59
2022/08/26 03:27:41;;;;;;;18.02;11.98;;;21.90;99.90;;;;;;5103694;27;36575;-59
2022/08/26 03:32:56;;;;;;;21.17;12.02;;;21.90;99.90;;;;;;5104944;27;39666;-58
2022/08/26 03:35:24;;;;;;;22.30;11.50;;;21.90;99.90;;;;;;5104045;27;36479;-58
2022/08/26 03:37:52;;;;;;;20.75;11.55;;;21.90;99.90;;;;;;5105361;27;35696;-58
2022/08/26 03:40:20;;;;;;;19.48;11.50;;;21.90;99.90;;;;;;5104661;27;37536;-58
2022/08/26 03:42:48;;;;;;;19.73;10.88;;;21.90;99.90;;;;;;5104723;27;40035;-58
2022/08/26 03:45:16;;;;;;;19.65;11.77;;;21.90;99.90;;;;;;5104316;27;39039;-58
2022/08/26 03:47:44;;;;;;;23.63;11.32;;;21.90;99.90;;;;;;5105270;27;37464;-58
2022/08/26 03:50:18;;;;;;;16.15;9.77;;;21.90;99.90;;;;;;5104529;27;38986;-59
2022/08/26 03:52:45;;;;;;;20.80;10.95;;;21.80;99.90;;;;;;5104359;27;37395;-58
2022/08/26 03:55:14;;;;;;;20.67;10.75;;;21.80;99.90;;;;;;5102853;27;38764;-59
2022/08/26 03:57:41;;;;;;;17.13;10.60;;;21.70;99.90;;;;;;5104315;27;36722;-58
2022/08/26 04:00:12;;;;;;;20.10;10.45;;;21.70;99.90;;;;;;5104736;27;38512;-58
2022/08/26 04:02:42;;;;;;;17.73;9.25;;;21.70;99.90;;;;;;5104569;27;38549;-59
2022/08/26 04:05:10;;;;;;;17.60;9.48;;;21.70;99.90;;;;;;5102141;27;38886;-58
2022/08/26 04:07:39;;;;;;;17.25;8.55;;;21.70;99.90;;;;;;5104861;27;37465;-58
2022/08/26 04:10:07;;;;;;;13.23;7.93;;;21.70;99.90;;;;;;5104347;27;37571;-59
2022/08/26 04:12:37;;;;;;;15.95;8.73;;;21.70;99.90;;;;;;5103102;27;37621;-59
2022/08/26 04:15:05;;;;;;;16.95;9.13;;;21.70;99.90;;;;;;5104478;27;39851;-59
2022/08/26 04:17:33;;;;;;;18.38;9.80;;;21.70;99.90;;;;;;5104161;27;36456;-59
2022/08/26 04:20:00;;;;;;;18.30;9.07;;;21.70;99.90;;;;;;5104835;27;38224;-58
2022/08/26 04:22:27;;;;;;;19.10;9.20;;;21.70;99.90;;;;;;5104744;27;36569;-59
2022/08/26 04:24:56;;;;;;;16.75;8.63;;;21.70;99.90;;;;;;5103497;27;38664;-58
2022/08/26 04:27:24;;;;;;;21.95;8.60;;;21.70;99.90;;;;;;5104676;27;39011;-61
2022/08/26 04:29:51;;;;;;;20.17;9.07;;;21.70;99.90;;;;;;5103692;27;37601;-61
2022/08/26 04:32:18;;;;;;;15.90;8.70;;;21.60;99.90;;;;;;5102846;27;36475;-61
2022/08/26 04:34:46;;;;;;;17.77;7.55;;;21.60;99.90;;;;;;5103212;27;37601;-61
2022/08/26 04:37:13;;;;;;;17.27;7.78;;;21.60;99.90;;;;;;5103086;27;37573;-61
2022/08/26 04:39:41;;;;;;;17.50;8.10;;;21.70;99.90;;;;;;5102715;27;36444;-61
2022/08/26 04:42:09;;;;;;;24.75;8.65;;;21.60;99.90;;;;;;5104342;27;37554;-61
2022/08/26 04:44:37;;;;;;;20.25;7.38;;;21.60;99.90;;;;;;5104529;27;37567;-61
2022/08/26 04:47:05;;;;;;;16.67;6.85;;;21.60;99.90;;;;;;5103623;27;37639;-61
2022/08/26 04:49:32;;;;;;;15.88;7.68;;;21.60;99.90;;;;;;5104430;27;36247;-61
2022/08/26 04:51:59;;;;;;;17.52;8.57;;;21.60;99.90;;;;;;5103848;27;39031;-60
2022/08/26 04:54:27;;;;;;;20.05;8.55;;;21.50;99.90;;;;;;5102800;27;37490;-61
2022/08/26 04:56:54;;;;;;;22.40;8.40;;;21.40;99.90;;;;;;5103671;27;37217;-61
2022/08/26 04:59:23;;;;;;;21.50;8.18;;;21.40;99.90;;;;;;5104362;27;37352;-61
2022/08/26 05:01:55;;;;;;;18.55;8.30;;;21.40;99.90;;;;;;5103652;27;36527;-60
2022/08/26 05:04:22;;;;;;;15.52;6.90;;;21.40;99.90;;;;;;5103771;27;39796;-60
2022/08/26 05:06:50;;;;;;;18.75;8.15;;;21.30;99.90;;;;;;5102385;27;37060;-60
2022/08/26 05:09:18;;;;;;;19.45;7.90;;;21.30;99.90;;;;;;5102454;27;39017;-61
2022/08/26 05:11:46;;;;;;;25.02;9.20;;;21.30;99.90;;;;;;5102661;27;36608;-61
2022/08/26 05:14:13;;;;;;;20.40;7.82;;;21.30;99.90;;;;;;5104686;27;37760;-61
2022/08/26 05:16:42;;;;;;;27.85;8.23;;;21.30;99.90;;;;;;5105840;27;36648;-61
2022/08/26 05:19:10;;;;;;;23.40;9.05;;;21.30;99.90;;;;;;5106873;27;37784;-61
2022/08/26 05:21:38;;;;;;;23.30;7.88;;;21.30;99.90;;;;;;5106949;27;38618;-61
2022/08/26 05:24:06;;;;;;;21.52;6.75;;;21.30;99.90;;;;;;5106103;27;38732;-61
2022/08/26 05:26:33;;;;;;;17.90;7.47;;;21.30;99.90;;;;;;5106450;27;37073;-61
2022/08/26 05:29:01;;;;;;;17.17;7.38;;;21.30;99.90;;;;;;5107174;27;37681;-61
2022/08/26 05:31:31;;;;;;;19.27;7.20;;;21.30;99.90;;;;;;5106872;27;38250;-61
2022/08/26 05:34:01;;;;;;;26.00;7.97;;;21.30;99.90;;;;;;5105385;27;36016;-61
2022/08/26 05:36:30;;;;;;;16.88;7.13;;;21.30;99.90;;;;;;5106512;27;36741;-61
2022/08/26 05:38:58;;;;;;;15.10;6.97;;;21.30;99.90;;;;;;5104305;27;38528;-60
2022/08/26 05:41:29;;;;;;;17.35;6.65;;;21.30;99.90;;;;;;5104963;27;38899;-61
2022/08/26 05:43:57;;;;;;;15.02;6.40;;;21.30;99.90;;;;;;5107667;27;38315;-61
2022/08/26 05:46:25;;;;;;;16.60;7.30;;;21.40;99.90;;;;;;5104727;27;35243;-62
2022/08/26 05:48:52;;;;;;;17.35;6.55;;;21.40;99.90;;;;;;5104135;27;36384;-61
2022/08/26 05:51:21;;;;;;;16.48;6.10;;;21.50;99.90;;;;;;5104367;27;37143;-61
2022/08/26 05:53:48;;;;;;;15.38;6.05;;;21.40;99.90;;;;;;5105030;27;37763;-61
2022/08/26 05:56:16;;;;;;;14.52;6.50;;;21.50;99.90;;;;;;5105812;27;36555;-61
2022/08/26 05:58:43;;;;;;;16.17;6.13;;;21.50;99.90;;;;;;5105189;27;38151;-61
2022/08/26 06:01:13;;;;;;;11.98;5.45;;;21.50;99.90;;;;;;5104038;27;37819;-61
2022/08/26 06:03:43;;;;;;;17.23;5.88;;;21.50;99.90;;;;;;5105479;27;37466;-61
2022/08/26 06:06:12;;;;;;;14.38;5.97;;;21.50;99.90;;;;;;5104325;27;36497;-61
2022/08/26 06:08:42;;;;;;;16.95;6.15;;;21.50;99.90;;;;;;5102923;27;36186;-61
2022/08/26 06:11:11;;;;;;;14.82;6.57;;;21.50;99.90;;;;;;5104910;27;37542;-61
2022/08/26 06:13:39;;;;;;;15.15;5.35;;;21.50;99.90;;;;;;5104011;27;38187;-61
2022/08/26 06:16:15;;;;;;;16.65;5.30;;;21.50;99.90;;;;;;5104323;27;36641;-61
2022/08/26 06:18:46;;;;;;;16.75;4.80;;;21.50;99.90;;;;;;5106288;27;39599;-61
2022/08/26 06:21:15;;;;;;;16.73;5.13;;;21.50;99.90;;;;;;5105481;27;39210;-61
2022/08/26 06:26:31;;;;;;;13.27;4.25;;;21.40;99.90;;;;;;5106787;27;37951;-61
2022/08/26 06:28:58;;;;;;;15.27;4.72;;;21.40;99.90;;;;;;5104050;27;39151;-61
2022/08/26 06:31:26;;;;;;;13.48;4.00;;;21.40;99.90;;;;;;5105495;27;37569;-61
2022/08/26 06:33:53;;;;;;;18.50;4.68;;;21.40;99.90;;;;;;5104562;27;38309;-61
2022/08/26 06:36:24;;;;;;;13.13;3.90;;;21.40;99.90;;;;;;5104134;27;35381;-61
2022/08/26 06:38:54;;;;;;;12.38;3.58;;;21.40;99.90;;;;;;5105053;27;40475;-61
2022/08/26 06:41:22;;;;;;;16.23;4.15;;;21.40;99.90;;;;;;5105109;27;38095;-61
2022/08/26 06:43:50;;;;;;;14.68;4.10;;;21.40;99.90;;;;;;5106044;27;37402;-61
2022/08/26 06:46:20;;;;;;;16.35;4.32;;;21.40;99.90;;;;;;5105847;27;36391;-61
2022/08/26 06:48:47;;;;;;;14.23;4.97;;;21.40;99.90;;;;;;5104271;27;36860;-61
2022/08/26 06:51:17;;;;;;;12.68;4.60;;;21.50;99.90;;;;;;5105165;27;36537;-61
2022/08/26 06:53:47;;;;;;;12.18;4.07;;;21.50;99.90;;;;;;5106111;27;37404;-61
2022/08/26 06:56:19;;;;;;;12.15;4.05;;;21.50;99.90;;;;;;5106495;27;36464;-61
2022/08/26 06:58:47;;;;;;;14.00;3.90;;;21.50;99.90;;;;;;5106762;27;39621;-61
2022/08/26 07:01:17;;;;;;;12.25;4.25;;;21.50;99.90;;;;;;5106013;27;37509;-61
2022/08/26 07:03:44;;;;;;;13.60;3.80;;;21.50;99.90;;;;;;5103907;27;37942;-61
2022/08/26 07:06:12;;;;;;;12.70;4.15;;;21.50;99.90;;;;;;5100091;27;36645;-61
2022/08/26 07:08:40;;;;;;;10.63;3.45;;;21.50;99.90;;;;;;5097740;27;39895;-61
2022/08/26 07:11:08;;;;;;;10.05;3.10;;;21.60;99.90;;;;;;5099300;27;36954;-61
2022/08/26 07:13:37;;;;;;;13.85;3.90;;;21.60;99.90;;;;;;5102846;27;37609;-61
2022/08/26 07:16:05;;;;;;;13.20;3.50;;;21.60;99.90;;;;;;5104107;27;38143;-61
2022/08/26 07:18:33;;;;;;;10.15;3.20;;;21.60;99.90;;;;;;5103926;27;37694;-61
2022/08/26 07:21:01;;;;;;;14.18;3.88;;;21.60;99.90;;;;;;5105285;27;38233;-61
2022/08/26 07:23:29;;;;;;;12.18;2.90;;;21.60;99.90;;;;;;5104789;27;37335;-61
2022/08/26 07:25:56;;;;;;;11.25;3.13;;;21.60;99.90;;;;;;5105066;27;36535;-61
2022/08/26 07:28:23;;;;;;;9.63;2.90;;;21.70;99.90;;;;;;5105582;27;38056;-61
2022/08/26 07:30:52;;;;;;;9.88;2.40;;;21.70;99.90;;;;;;5104977;27;36680;-61
2022/08/26 07:33:19;;;;;;;9.98;2.97;;;21.60;99.90;;;;;;5104230;27;36838;-61
2022/08/26 07:35:47;;;;;;;7.85;2.10;;;21.70;99.90;;;;;;5104506;27;38796;-61
2022/08/26 07:38:14;;;;;;;9.57;2.45;;;21.70;99.90;;;;;;5104651;27;39022;-61
2022/08/26 07:40:42;;;;;;;9.77;2.30;;;21.60;99.90;;;;;;5104693;27;36885;-61
2022/08/26 07:43:09;;;;;;;13.15;2.33;;;21.70;99.90;;;;;;5105555;27;38122;-61
2022/08/26 07:45:36;;;;;;;12.15;2.72;;;21.60;99.90;;;;;;5104335;27;36598;-61
2022/08/26 07:48:06;;;;;;;13.88;2.67;;;21.60;99.90;;;;;;5104249;27;37045;-60
2022/08/26 07:50:33;;;;;;;11.95;3.33;;;21.70;99.90;;;;;;5105753;27;39021;-61
2022/08/26 07:53:01;;;;;;;16.45;3.47;;;21.70;99.90;;;;;;5105434;27;37468;-61
2022/08/26 07:55:29;;;;;;;12.60;2.78;;;21.70;99.90;;;;;;5104802;27;37185;-61
2022/08/26 07:57:56;;;;;;;13.25;2.42;;;21.80;99.90;;;;;;5103666;27;36985;-61
2022/08/26 08:00:24;;;;;;;10.93;2.33;;;21.80;99.90;;;;;;5104141;27;36553;-61
2022/08/26 08:02:52;;;;;;;12.95;2.42;;;21.90;99.90;;;;;;5105225;27;37457;-61
2022/08/26 08:05:22;;;;;;;12.23;2.40;;;21.90;99.90;;;;;;5103320;27;37038;-61
2022/08/26 08:07:50;;;;;;;10.32;2.30;;;22.00;99.90;;;;;;5105817;27;37887;-61
2022/08/26 08:10:20;;;;;;;8.30;2.00;;;21.90;99.90;;;;;;5104994;27;37876;-60
2022/08/26 08:12:49;;;;;;;11.60;1.95;;;21.90;99.90;;;;;;5105972;27;38589;-61
2022/08/26 08:15:17;;;;;;;6.97;1.83;;;21.90;99.90;;;;;;5101878;27;36545;-61
2022/08/26 08:17:44;;;;;;;13.43;2.22;;;21.80;99.90;;;;;;5103382;27;38344;-61
2022/08/26 08:20:13;;;;;;;8.57;1.80;;;21.80;99.90;;;;;;5103945;27;37156;-61
2022/08/26 08:22:42;;;;;;;7.97;1.77;;;21.80;99.90;;;;;;5103775;27;36047;-60
2022/08/26 08:25:10;;;;;;;8.70;2.00;;;21.70;99.90;;;;;;5103712;27;37060;-61
2022/08/26 08:27:39;;;;;;;7.15;1.63;;;21.70;99.90;;;;;;5103344;27;36416;-61
2022/08/26 08:30:09;;;;;;;9.32;2.00;;;21.60;99.90;;;;;;5103415;27;38463;-61
2022/08/26 08:32:38;;;;;;;12.98;2.42;;;21.60;99.90;;;;;;5102713;27;37529;-61
2022/08/26 08:35:07;;;;;;;11.32;1.90;;;21.60;99.90;;;;;;5102620;27;36439;-61
2022/08/26 08:37:34;;;;;;;10.07;1.70;;;21.50;99.90;;;;;;5103985;27;36422;-61
2022/08/26 08:40:06;;;;;;;10.50;2.75;;;21.50;99.90;;;;;;5105132;27;37576;-61
2022/08/26 08:42:42;;;;;;;8.38;2.00;;;21.50;99.90;;;;;;5104743;27;38230;-61
2022/08/26 08:45:14;;;;;;;8.38;2.00;;;21.50;99.90;;;;;;5102929;27;36916;-59
2022/08/26 08:47:46;;;;;;;9.68;2.03;;;21.50;99.90;;;;;;5102903;27;36547;-60
2022/08/26 08:50:22;;;;;;;11.07;1.90;;;21.40;99.90;;;;;;5101818;27;38309;-60
2022/08/26 08:52:56;;;;;;;10.10;2.40;;;21.40;99.90;;;;;;5104222;27;37421;-60
2022/08/26 08:55:33;;;;;;;11.25;2.15;;;21.40;99.90;;;;;;5102241;27;36492;-60
2022/08/26 08:58:05;;;;;;;6.32;1.55;;;21.40;99.90;;;;;;5103054;27;37558;-60
2022/08/26 09:00:42;;;;;;;9.48;1.67;;;21.50;99.90;;;;;;5103717;27;38748;-60
2022/08/26 09:03:19;;;;;;;11.07;2.25;;;21.50;99.90;;;;;;5103833;27;37343;-60
2022/08/26 09:05:50;;;;;;;12.50;2.15;;;21.50;99.90;;;;;;5103333;27;36379;-60
2022/08/26 09:08:22;;;;;;;10.18;2.22;;;21.50;99.90;;;;;;5103822;27;36469;-60
2022/08/26 09:10:54;;;;;;;10.93;2.23;;;21.50;99.90;;;;;;5104271;27;39095;-60
2022/08/26 09:13:23;;;;;;;8.00;1.87;;;21.60;99.90;;;;;;5103968;27;38213;-60
2022/08/26 09:15:59;;;;;;;14.38;2.42;;;21.60;99.90;;;;;;5104516;27;36365;-60
2022/08/26 09:18:38;;;;;;;9.40;2.03;;;21.50;99.90;;;;;;5101826;27;38489;-60
2022/08/26 09:21:08;;;;;;;11.27;2.30;;;21.60;99.90;;;;;;5099764;27;39189;-60
2022/08/26 09:23:38;;;;;;;9.65;1.92;;;21.60;99.90;;;;;;5102070;27;39084;-60
2022/08/26 09:26:17;;;;;;;11.00;1.75;;;21.70;99.90;;;;;;5102396;27;36650;-60
2022/08/26 09:28:47;;;;;;;7.82;2.08;;;21.90;99.90;;;;;;5100885;27;36181;-60
2022/08/26 09:31:20;;;;;;;10.50;2.25;;;21.90;99.90;;;;;;5100054;27;38275;-60
2022/08/26 09:33:47;;;;;;;8.27;2.50;;;21.90;99.90;;;;;;5099602;27;37305;-60
2022/08/26 09:36:21;;;;;;;9.95;1.90;;;21.90;99.90;;;;;;5101374;27;37282;-60
2022/08/26 09:38:49;;;;;;;12.23;2.10;;;21.90;99.90;;;;;;5101626;27;37863;-60
2022/08/26 09:41:25;;;;;;;11.90;2.63;;;21.80;99.90;;;;;;5102705;27;38363;-60
2022/08/26 09:44:11;;;;;;;8.93;2.00;;;21.80;99.90;;;;;;5100581;27;37366;-60
2022/08/26 09:46:41;;;;;;;24.88;3.17;;;21.70;99.90;;;;;;5102240;27;36409;-60
2022/08/26 09:49:32;;;;;;;13.30;2.47;;;21.70;99.90;;;;;;5103167;27;36270;-60
2022/08/26 09:52:17;;;;;;;9.13;1.95;;;21.70;99.90;;;;;;5103179;27;38716;-60
2022/08/26 09:54:45;;;;;;;10.45;1.85;;;21.70;99.90;;;;;;5103959;27;38340;-60
2022/08/26 09:57:24;;;;;;;9.10;2.33;;;21.60;99.90;;;;;;5104105;27;36479;-60
2022/08/26 09:59:52;;;;;;;12.25;2.55;;;21.60;99.90;;;;;;5103332;27;36483;-60
2022/08/26 10:02:41;;;;;;;8.82;1.88;;;21.60;99.90;;;;;;5103786;27;38446;-60
2022/08/26 10:05:16;;;;;;;6.55;2.20;;;21.60;99.90;;;;;;5104946;27;37515;-60
2022/08/26 10:07:46;;;;;;;8.35;1.52;;;21.60;99.90;;;;;;5107523;27;36731;-60
2022/08/26 10:10:19;;;;;;;9.48;2.00;;;21.60;99.90;;;;;;5107585;27;38849;-60
2022/08/26 10:12:55;;;;;;;7.10;1.63;;;21.60;99.90;;;;;;5104873;27;39167;-60
2022/08/26 10:15:25;;;;;;;8.95;2.40;;;21.60;99.90;;;;;;5106211;27;38263;-60
2022/08/26 10:17:59;;;;;;;8.95;1.77;;;21.60;99.90;;;;;;5107236;27;37031;-60
2022/08/26 10:20:31;;;;;;;10.23;1.77;;;21.60;99.90;;;;;;5106290;27;36694;-60
2022/08/26 10:23:04;;;;;;;12.13;1.63;;;21.60;99.90;;;;;;5106761;27;38573;-60
2022/08/26 10:25:37;;;;;;;9.00;2.22;;;21.60;99.90;;;;;;5106505;27;36919;-61
2022/08/26 10:28:12;;;;;;;6.38;1.70;;;21.60;99.90;;;;;;5105397;27;37688;-60
2022/08/26 10:30:46;;;;;;;7.85;1.60;;;21.70;99.90;;;;;;5105219;27;39414;-60
2022/08/26 10:33:14;;;;;;;8.13;1.52;;;21.70;99.90;;;;;;5106464;27;37874;-60
2022/08/26 10:35:50;;;;;;;7.70;1.60;;;21.70;99.90;;;;;;5104247;27;37448;-60
2022/08/26 10:38:21;;;;;;;14.60;2.47;;;21.60;99.90;;;;;;5105717;27;39379;-60
2022/08/26 10:40:54;;;;;;;11.00;2.10;;;21.60;99.90;;;;;;5106548;27;39341;-60
2022/08/26 10:43:27;;;;;;;11.52;2.55;;;21.60;99.90;;;;;;5105380;27;37665;-61
2022/08/26 10:45:58;;;;;;;9.63;2.17;;;21.60;99.90;;;;;;5103435;27;40456;-60
2022/08/26 10:48:32;;;;;;;10.23;1.60;;;21.50;99.90;;;;;;5104878;27;36655;-60
2022/08/26 10:51:02;;;;;;;13.60;3.67;;;21.50;99.90;;;;;;5105587;27;36733;-60
2022/08/26 10:53:39;;;;;;;11.48;1.95;;;21.50;99.90;;;;;;5104040;27;38235;-60
2022/08/26 10:56:11;;;;;;;17.15;2.30;;;21.50;99.90;;;;;;5099577;27;38470;-60
2022/08/26 10:58:54;;;;;;;9.95;2.25;;;21.40;99.90;;;;;;5105569;27;37989;-60
2022/08/26 11:01:45;;;;;;;10.90;2.17;;;21.40;99.90;;;;;;5105106;27;37725;-60
2022/08/26 11:04:36;;;;;;;13.00;2.33;;;21.50;99.90;;;;;;5103136;27;36546;-60
2022/08/26 11:07:32;;;;;;;10.48;2.28;;;21.40;99.90;;;;;;5101647;27;38279;-60
2022/08/26 11:10:01;;;;;;;12.45;2.15;;;21.40;99.90;;;;;;5103091;27;36515;-60
2022/08/26 11:12:48;;;;;;;11.38;2.15;;;21.40;99.90;;;;;;5104766;27;40277;-60
2022/08/26 11:16:07;;;;;;;9.55;2.30;;;21.40;99.90;;;;;;5102702;27;40162;-60
2022/08/26 11:18:40;;;;;;;5.53;1.30;;;21.40;99.90;;;;;;5104202;27;38288;-60
2022/08/26 11:21:37;;;;;;;7.80;2.00;;;21.30;99.90;;;;;;5101659;27;35476;-60
2022/08/26 11:24:05;;;;;;;7.63;1.75;;;21.30;99.90;;;;;;5077879;27;37146;-60
2022/08/26 11:26:35;;;;;;;7.35;2.00;;;21.30;99.90;;;;;;5104070;27;37598;-60
2022/08/26 11:29:03;;;;;;;9.90;2.42;;;21.30;99.90;;;;;;5104561;27;37238;-60
2022/08/26 11:34:55;;;;;;;6.55;1.88;;;21.20;99.90;;;;;;5102461;27;38149;-60
2022/08/26 11:37:29;;;;;;;6.25;1.40;;;21.30;99.90;;;;;;5100579;27;38613;-60
2022/08/26 11:39:56;;;;;;;10.63;2.20;;;21.30;99.90;;;;;;5104169;27;38816;-60
2022/08/26 11:42:31;;;;;;;9.90;2.08;;;21.30;99.90;;;;;;5104515;27;36662;-60
2022/08/26 11:45:00;;;;;;;9.63;1.83;;;21.40;99.90;;;;;;5103436;27;38401;-60
2022/08/26 11:47:31;;;;;;;9.00;1.80;;;21.40;99.90;;;;;;5102329;27;38201;-60
2022/08/26 11:50:14;;;;;;;10.30;2.00;;;21.40;99.90;;;;;;5100871;27;37099;-60
2022/08/26 11:52:50;;;;;;;7.57;1.77;;;21.40;99.90;;;;;;5104838;27;35294;-61
2022/08/26 11:55:17;;;;;;;7.10;1.80;;;21.30;99.90;;;;;;5100034;27;37513;-61
2022/08/26 11:57:49;;;;;;;8.35;1.60;;;21.30;99.90;;;;;;5103005;27;36655;-60
2022/08/26 12:00:21;;;;;;;5.45;2.00;;;21.40;99.90;;;;;;5102205;27;37631;-61
2022/08/26 12:02:50;;;;;;;8.70;1.80;;;21.30;99.90;;;;;;5103774;27;37450;-60
2022/08/26 12:05:23;;;;;;;7.38;1.88;;;21.40;99.90;;;;;;5103620;27;38917;-60
2022/08/26 12:07:53;;;;;;;5.15;1.42;;;21.30;99.90;;;;;;5103603;27;36404;-60
2022/08/26 12:10:28;;;;;;;7.80;1.60;;;21.20;99.90;;;;;;5103873;27;39282;-60
2022/08/26 12:12:57;;;;;;;7.43;1.52;;;21.20;99.90;;;;;;5104037;27;36747;-60
2022/08/26 12:15:26;;;;;;;6.13;1.55;;;21.20;99.90;;;;;;5103777;27;36302;-60
2022/08/26 12:17:55;;;;;;;6.30;1.45;;;21.20;99.90;;;;;;5104003;27;36533;-60
2022/08/26 12:20:44;;;;;;;9.27;1.75;;;21.30;99.90;;;;;;5104601;27;36209;-60
2022/08/26 12:23:25;;;;;;;7.03;1.48;;;21.30;99.90;;;;;;5104392;27;36590;-60
2022/08/26 12:26:02;;;;;;;6.20;1.38;;;21.30;99.90;;;;;;5103651;27;36383;-60
2022/08/26 12:28:31;;;;;;;12.32;2.35;;;21.30;99.90;;;;;;5103540;27;37934;-60
2022/08/26 12:31:02;;;;;;;7.68;1.63;;;21.30;99.90;;;;;;5103775;27;40112;-61
2022/08/26 12:33:35;;;;;;;8.25;1.75;;;21.30;99.90;;;;;;5103686;27;34912;-60
2022/08/26 12:36:03;;;;;;;9.97;1.70;;;21.30;99.90;;;;;;5103302;27;38425;-60
2022/08/26 12:38:32;;;;;;;7.20;1.60;;;21.20;99.90;;;;;;5104819;27;37788;-60
2022/08/26 12:41:00;;;;;;;12.48;2.47;;;21.20;99.90;;;;;;5104494;27;37607;-60
2022/08/26 12:43:40;;;;;;;9.68;2.00;;;21.20;99.90;;;;;;5104500;27;36629;-60
2022/08/26 12:46:10;;;;;;;11.80;2.50;;;21.20;99.90;;;;;;5103329;27;36463;-60
2022/08/26 12:48:44;;;;;;;11.98;2.13;;;21.10;99.90;;;;;;5101247;27;37641;-60
2022/08/26 12:51:23;;;;;;;12.52;2.40;;;21.10;99.90;;;;;;5103903;27;38497;-60
2022/08/26 12:53:51;;;;;;;14.00;3.33;;;21.10;99.90;;;;;;5103588;27;36520;-60
2022/08/26 12:56:25;;;;;;;9.02;1.80;;;21.00;99.90;;;;;;5103433;27;37467;-60
2022/08/26 12:59:04;;;;;;;6.95;1.85;;;21.10;99.90;;;;;;5103905;27;38104;-60
2022/08/26 13:01:39;;;;;;;8.85;2.80;;;21.10;99.90;;;;;;5103489;27;38309;-60